Airfield :
LOGIN :

Register | Disclaimer

   EN    FR    IT 

 










Legend :    VFR   Marginal VFR   IFR   Intensive IFR   Very Intensive IFR
Visi :
Ceiling :
>= 8 km
>= 3000ft
5 to 8 km
1000 to 3000 ft
1500m to 5 km
500 to 1000 ft
800 to 1500m
200 to 500 ft
< 800m
< 200 ft
Symbols :   Thunderstorms  Fog  Heavy snow  Heavy precipitations  Wind > 20 kt
SIGMETs :     Misc.  Thunderstorms  Icing  Turbulence  Mountain Waves  Volcanic Ashes







- Airport Elevation : 505 ft
- IATA code : SXB
- Download approach charts


LFST - Strasbourg

CURRENT METAR :
  • 202000Z AUTO 11001KT CAVOK 17/09 Q1021 NOSIG

EXPIRED METARs :
  • 201930Z AUTO VRB02KT CAVOK 19/09 Q1021 NOSIG
  • 201900Z AUTO VRB01KT CAVOK 20/08 Q1020 NOSIG
  • 201830Z AUTO VRB02KT CAVOK 22/09 Q1020 NOSIG
  • 201800Z AUTO 30004KT 9999 FEW007 24/07 Q1020 NOSIG
  • 201730Z AUTO 31003KT CAVOK 26/07 Q1020 NOSIG

TAF TAF LFST
Valid from the 20 at 18:00 until the 21 at 18:00 UTC


201700Z 2018/2118 34004KT CAVOK
No reported NOTAMs for that airfield.



MET'MAP, your aeronautical weather chart ! - Copyright ORBIFLY December 2007 - Disclaimer

ORBIFLY MET'MAP TEAM :

Programming & Development : Alexandra Zaïnal
Concept & Development : Baudouin d'Aumeries
Co-Development & Prog : Marc-Olivier Méhu
Technical & hardware support : Manuel Goepfert

Contact : metmap@orbifly.com




SOURCES & CREDITS :

   NOAA